Corsicana, TX

2:36 AM CDT on April 28, 2015 (GMT -0500)
Carol Ave | | Change Station
CLOSE
Current Station
Personal Weather Station
Location: Corsicana, TX
Elevation: 460 ft
Nearby Weather Stations
Active Advisory: Flood Warning

Elev 460 ft 32.12 °N, 96.49 °W | Updated 13 minutes ago

Overcast
Overcast
56.2 °F
Feels Like 56.2 °F
N
0.0
Wind Variable Wind from South
Gusts 6.0 mph

Today
High -- | Low -- °F
--% Chance of Precip.
Yesterday
High -- | Low -- °F
Precip. -- in
6:42 AM 8:04 PM
Waxing Gibbous, 71% visible
Pressure 29.87 in
Visibility 10.0 miles
Clouds Overcast 1100 ft
Dew Point 55 °F
Humidity 95%
Rainfall 0.00 in
Snow Depth Not available.
UV 0 out of 12
Pollen 4.20 out of 12
Air Quality Not available.
Flu Activity Local Activity
METAR KCRS 280653Z AUTO 03006KT 10SM OVC011 15/13 A2988 RMK AO2 SLP115 T01500128 $

More Conditions Fewer Conditions

Pressure 29.87 in
Visibility 10.0 miles
Clouds Overcast 1100 ft
Dew Point 55 °F
Humidity 95%
Rainfall 0.00 in
Snow Depth Not available.
UV 0 out of 12
Pollen 4.20 out of 12
Air Quality Not available.
Flu Activity Local Activity
METAR KCRS 280653Z AUTO 03006KT 10SM OVC011 15/13 A2988 RMK AO2 SLP115 T01500128 $

More Conditions Fewer Conditions

10-Day Weather Forecast

Almanac

Astronomy

Apr. 28, 2015 Rise Set
Actual Time
Civil Twilight
Nautical Twilight
Astronomical Twilight
Moon
Length of Visible Light
Length of Day
Tomorrow will be .
, % of the Moon is Illuminated

Today's Extremes

State Highs State Lows

Community

WunderPhotos

Upload Photos

1,817,594 photos uploaded!

WunderBlogs® & News

Nearby

Air Quality

  Air Quality AQ Index Pollutant
Not available.

Snow Depth

Station Depth Elevation

Earthquake Activity

City Distance Mag. Time & Date
Minimum magnitude displayed is 2.5.

Coastal Water Temperatures

Place Temperature

Stations

Nearby Weather Stations

Station Location Temp. Windchill Dew Point Humidity Wind Precip. Elev Updated Type
                   
Flood Warning
Statement as of 9:29 PM CDT on April 27, 2015

The Flood Warning continues for
the Trinity River at Trinidad.
* At 0900 PM Monday the stage was 34.59 feet.
* Flood stage is 33 feet.
* Minor flooding is occurring and minor flooding is forecast.
* Forecast... the river will continue rising to a crest near 35 feet
by Wednesday morning. The river should fall below flood stage
Friday night.


Lat... Lon 3219 9626 3206 9613 3207 9600 3223 9613




929 PM CDT Mon Apr 27 2015

The Flood Warning continues for
the Chambers creek near Rice.
* At 0900 PM Monday the stage was 23.73 feet.
* Flood stage is 24 feet.
* Moderate flooding is forecast.
* Forecast... the river is expected to rise above flood stage by
Monday night and crest near 29 feet by Tuesday evening. The river
should fall below flood stage by Thursday morning.


Lat... Lon 3217 9663 3212 9648 3218 9638 3227 9656